createdAt,value
2023-03-23T15:58:13.211Z,57.70
2023-03-23T16:00:43.573Z,57.40
2023-03-23T16:03:20.468Z,57.40
2023-03-23T16:05:48.738Z,57.40
2023-03-23T16:08:17.932Z,57.30
2023-03-23T16:10:46.105Z,57.40
2023-03-23T16:13:14.262Z,57.50
2023-03-23T16:15:42.926Z,57.60
2023-03-23T16:18:19.034Z,57.70
2023-03-23T16:20:48.114Z,57.90
2023-03-23T16:23:16.544Z,58.00
2023-03-23T16:25:45.109Z,58.10
2023-03-23T16:28:14.980Z,58.20
2023-03-23T16:30:44.586Z,58.20
2023-03-23T16:33:14.344Z,58.40
2023-03-23T16:35:43.642Z,58.50
2023-03-23T16:38:16.285Z,58.40
2023-03-23T16:40:45.531Z,58.50
2023-03-23T16:43:14.633Z,58.60
2023-03-23T16:45:44.402Z,58.40
2023-03-23T16:48:16.005Z,58.30
2023-03-23T16:50:45.078Z,58.20
2023-03-23T16:53:13.526Z,58.20
2023-03-23T16:55:44.102Z,58.20
2023-03-23T16:58:17.536Z,58.10
2023-03-23T17:00:49.780Z,58.10
2023-03-23T17:03:20.314Z,57.80
2023-03-23T17:05:50.071Z,57.80
2023-03-23T17:08:19.010Z,58.00
2023-03-23T17:10:47.482Z,58.10
2023-03-23T17:13:15.794Z,58.20
2023-03-23T17:15:46.920Z,58.30
2023-03-23T17:18:16.449Z,58.40
2023-03-23T17:20:46.342Z,58.60
2023-03-23T17:23:14.826Z,58.70
2023-03-23T17:25:43.340Z,58.80
2023-03-23T17:28:11.716Z,59.40
2023-03-23T17:30:42.283Z,59.00
2023-03-23T17:33:11.055Z,59.00
2023-03-23T17:35:39.649Z,59.30
2023-03-23T17:38:09.214Z,59.40
2023-03-23T17:40:37.362Z,59.30
2023-03-23T17:43:05.719Z,59.40
2023-03-23T17:45:33.982Z,59.40
2023-03-23T17:48:02.458Z,59.50
2023-03-23T17:50:30.667Z,59.60
2023-03-23T17:53:00.548Z,59.70
2023-03-23T17:55:30.303Z,59.80
2023-03-23T17:57:58.449Z,59.90
2023-03-23T18:00:26.726Z,60.00
2023-03-23T18:02:56.522Z,60.30
2023-03-23T18:05:27.769Z,60.50
2023-03-23T18:07:56.035Z,60.80
2023-03-23T18:10:25.057Z,61.10
2023-03-23T18:12:54.629Z,61.50
2023-03-23T18:15:22.926Z,61.90
2023-03-23T18:17:56.878Z,62.20
2023-03-23T18:20:25.382Z,62.50
2023-03-23T18:22:53.950Z,62.80
2023-03-23T18:25:22.363Z,63.20
2023-03-23T18:27:50.867Z,63.40
2023-03-23T18:30:20.625Z,63.60
2023-03-23T18:32:48.833Z,63.90
2023-03-23T18:35:17.001Z,64.20
2023-03-23T18:37:45.460Z,64.50
2023-03-23T18:40:14.433Z,64.70
2023-03-23T18:42:44.876Z,65.00
2023-03-23T18:45:14.123Z,65.30
2023-03-23T18:47:43.839Z,65.30
2023-03-23T18:50:12.769Z,65.50
2023-03-23T18:52:41.268Z,65.50
2023-03-23T18:55:10.388Z,65.60
2023-03-23T18:57:40.976Z,65.70
2023-03-23T19:00:10.068Z,65.90
2023-03-23T19:02:39.676Z,65.70
2023-03-23T19:05:10.269Z,65.70
2023-03-23T19:07:39.651Z,65.90
2023-03-23T19:10:08.357Z,65.90
2023-03-23T19:12:36.968Z,66.00
2023-03-23T19:15:06.669Z,66.00
2023-03-23T19:17:34.884Z,66.00
2023-03-23T19:20:03.232Z,66.00
2023-03-23T19:22:32.782Z,66.10
2023-03-23T19:25:00.954Z,66.20
2023-03-23T19:27:29.133Z,66.20
2023-03-23T19:29:57.288Z,66.30
2023-03-23T19:32:25.881Z,66.30
2023-03-23T19:34:54.384Z,66.40
2023-03-23T19:37:23.256Z,66.50
2023-03-23T19:39:52.874Z,66.70
2023-03-23T19:42:21.205Z,66.90
2023-03-23T19:44:49.513Z,67.00
2023-03-23T19:47:17.885Z,67.20
2023-03-23T19:49:46.615Z,67.50
2023-03-23T19:52:16.888Z,67.60
2023-03-23T19:54:46.988Z,67.80
2023-03-23T19:57:16.688Z,68.00
2023-03-23T19:59:44.993Z,68.10
2023-03-23T20:02:13.657Z,68.20
2023-03-23T20:04:43.430Z,68.20
2023-03-23T20:07:11.822Z,68.30
2023-03-23T20:09:40.146Z,68.40
2023-03-23T20:12:09.672Z,68.50
2023-03-23T20:14:44.143Z,68.80
2023-03-23T20:17:14.489Z,68.80
2023-03-23T20:19:43.022Z,68.80
2023-03-23T20:22:11.281Z,68.90
2023-03-23T20:24:39.444Z,68.90
2023-03-23T20:27:08.062Z,69.00
2023-03-23T20:29:36.393Z,69.00
2023-03-23T20:32:07.465Z,69.20
2023-03-23T20:34:36.321Z,69.30
2023-03-23T20:37:05.104Z,69.30
2023-03-23T20:39:34.691Z,69.40
2023-03-23T20:42:05.913Z,69.50
2023-03-23T20:44:35.460Z,69.60
2023-03-23T20:47:06.175Z,69.60
2023-03-23T20:49:37.103Z,69.70
2023-03-23T20:52:06.659Z,69.90
2023-03-23T20:54:35.600Z,69.90
2023-03-23T20:57:03.857Z,70.10
2023-03-23T20:59:32.063Z,70.40
2023-03-23T21:02:00.236Z,70.40
2023-03-23T21:04:30.185Z,70.40
2023-03-23T21:07:00.501Z,70.60
2023-03-23T21:09:28.709Z,70.60
2023-03-23T21:11:57.156Z,70.40
2023-03-23T21:14:26.435Z,70.50
2023-03-23T21:16:54.641Z,70.50
2023-03-23T21:19:23.984Z,70.40
2023-03-23T21:21:56.026Z,70.30
2023-03-23T21:24:28.250Z,70.40
2023-03-23T21:26:57.982Z,70.40
2023-03-23T21:29:27.734Z,70.30
2023-03-23T21:34:28.061Z,70.40
2023-03-23T21:36:57.639Z,70.00
2023-03-23T21:39:26.303Z,70.00
2023-03-23T21:41:54.529Z,70.00
2023-03-23T21:44:22.713Z,70.00
2023-03-23T21:46:52.294Z,70.00
2023-03-23T21:49:20.570Z,70.00
2023-03-23T21:51:50.143Z,70.00
2023-03-23T21:54:20.943Z,70.00
2023-03-23T21:56:49.131Z,70.00
2023-03-23T21:59:17.721Z,69.70
2023-03-23T22:01:45.919Z,69.80
2023-03-23T22:04:14.144Z,69.80
2023-03-23T22:06:42.460Z,69.80
2023-03-23T22:09:10.912Z,69.90
2023-03-23T22:11:40.924Z,70.00
2023-03-23T22:14:09.656Z,70.10
2023-03-23T22:16:37.954Z,70.20
2023-03-23T22:19:06.703Z,70.30
2023-03-23T22:21:34.954Z,70.40
2023-03-23T22:24:03.494Z,70.50
2023-03-23T22:26:31.860Z,70.60
2023-03-23T22:29:02.663Z,70.70
2023-03-23T22:31:33.916Z,71.00
2023-03-23T22:34:03.049Z,71.00
2023-03-23T22:36:33.368Z,71.10
2023-03-23T22:39:02.357Z,71.30
2023-03-23T22:41:33.745Z,71.50
2023-03-23T22:44:03.577Z,71.70
2023-03-23T22:46:32.234Z,71.80
2023-03-23T22:49:00.714Z,71.80
2023-03-23T22:51:29.241Z,71.90
2023-03-23T22:53:57.453Z,72.00
2023-03-23T22:56:26.003Z,72.10
2023-03-23T22:58:54.683Z,72.20
2023-03-23T23:01:24.843Z,72.40
2023-03-23T23:03:53.645Z,72.60
2023-03-23T23:06:22.377Z,72.50
2023-03-23T23:08:52.581Z,72.70
2023-03-23T23:11:24.151Z,72.80
2023-03-23T23:13:52.914Z,72.90
2023-03-23T23:16:24.205Z,72.90
2023-03-23T23:18:54.637Z,73.00
2023-03-23T23:21:26.116Z,73.20
2023-03-23T23:23:54.460Z,73.30
2023-03-23T23:26:23.199Z,73.40
2023-03-23T23:28:52.005Z,73.50
2023-03-23T23:31:26.187Z,73.60
2023-03-23T23:33:58.033Z,73.70
2023-03-23T23:36:30.023Z,73.70
2023-03-23T23:38:59.854Z,73.50
2023-03-23T23:41:29.919Z,73.30
2023-03-23T23:43:58.339Z,73.20
2023-03-23T23:46:26.863Z,73.10
2023-03-23T23:48:56.545Z,73.00
2023-03-23T23:51:27.354Z,73.10
2023-03-23T23:53:58.951Z,72.90
2023-03-23T23:56:27.422Z,73.00
2023-03-23T23:58:55.677Z,72.70
